Mulvane, Kansas
Current Conditions -  °F | °C
As of 9:58 AM on Monday 24 Nov 2014 (Local Time) from KIAB Reporting Station
Clear Clear  
Wind Chill: 37°   Ceiling: Unl
Heat Index: 44°   Visibility: 10mi
Dew Point: 20°   Wind: 15mph
Humidity: 39%   Direction: 320°NW
Pressure: 29.86"   Gusts: 25mph
Location:  37.47°N, 97.24°W
Report Text: KIAB 241558Z AUTO 32013G22KT 10SM CLR 07/M06 A2986 RMK AO2 SLP119 T00661065
Loading
Personal Weather Stations






























Interactive Weather Map New forecast layout! Learn more

10-Day Weather Forecast

Advertisements
Track Severe Weather on mobile